Time;durP1;ratioP1;P1;durP2;ratioP2;P2;SDS_P1;SDS_P2;PMS_P1;PMS_P2;Temp;Humidity;BMP_temperature;BMP_pressure;BME280_temperature;BME280_humidity;BME280_pressure;Samples;Min_cycle;Max_cycle;Signal;HPM_P1;HPM_P2
2023/09/04 00:00:24;;;;;;;;;2.00;2.00;;;;;24.69;59.71;101915.19;5058374;28;45508;-47
2023/09/04 00:02:50;;;;;;;;;6.00;5.60;;;;;24.66;60.68;101913.75;5058096;28;45682;-50
2023/09/04 00:05:18;;;;;;;;;6.00;5.50;;;;;24.63;59.79;101906.84;5058046;28;45495;-52
2023/09/04 00:07:44;;;;;;;;;7.20;5.40;;;;;24.58;60.08;101914.81;5058258;28;45447;-48
2023/09/04 00:10:10;;;;;;;;;6.00;5.60;;;;;24.56;60.76;101919.59;5058354;28;45414;-54
2023/09/04 00:12:35;;;;;;;;;4.75;3.25;;;;;24.56;60.37;101916.06;5056592;28;45334;-47
2023/09/04 00:15:00;;;;;;;;;8.00;6.50;;;;;24.54;60.65;101910.00;5058279;28;45409;-51
2023/09/04 00:17:26;;;;;;;;;6.75;4.50;;;;;24.51;60.74;101913.97;5057920;28;45424;-50
2023/09/04 00:19:51;;;;;;;;;8.75;7.00;;;;;24.49;60.91;101905.19;5058367;28;45295;-49
2023/09/04 00:22:16;;;;;;;;;9.00;7.50;;;;;24.46;61.10;101900.16;5057821;28;45569;-51
2023/09/04 00:24:42;;;;;;;;;21.00;20.75;;;;;24.44;60.66;101895.97;5057760;28;45300;-50
2023/09/04 00:27:07;;;;;;;;;8.50;8.50;;;;;24.36;60.82;101892.41;5058008;28;45382;-50
2023/09/04 00:29:32;;;;;;;;;8.50;7.50;;;;;24.42;60.60;101898.91;5058179;28;45387;-49
2023/09/04 00:31:57;;;;;;;;;6.00;6.00;;;;;24.43;60.36;101899.75;5057444;28;48897;-48
2023/09/04 00:34:23;;;;;;;;;5.50;5.50;;;;;24.35;60.68;101889.88;5057635;28;45360;-51
2023/09/04 00:36:48;;;;;;;;;7.00;7.00;;;;;24.34;61.20;101883.63;5057582;28;45357;-50
2023/09/04 00:39:13;;;;;;;;;4.50;4.50;;;;;24.32;60.87;101890.31;5057827;28;45478;-49
2023/09/04 00:41:39;;;;;;;;;6.00;5.00;;;;;24.35;60.96;101882.56;5056648;28;46205;-47
2023/09/04 00:44:04;;;;;;;;;4.75;4.00;;;;;24.33;60.81;101889.28;5057653;28;45403;-50
2023/09/04 00:46:30;;;;;;;;;5.25;5.25;;;;;24.30;60.53;101893.22;5057533;28;45483;-50
2023/09/04 00:48:55;;;;;;;;;5.50;5.50;;;;;24.28;60.84;101891.78;5057847;28;45581;-49
2023/09/04 00:51:21;;;;;;;;;4.75;4.25;;;;;24.25;61.26;101882.16;5057245;28;47041;-50
2023/09/04 00:53:48;;;;;;;;;4.50;4.50;;;;;24.22;60.68;101890.72;5057429;28;45307;-51
2023/09/04 00:56:14;;;;;;;;;5.60;5.60;;;;;24.19;60.88;101883.00;5057364;28;45468;-48
2023/09/04 00:58:40;;;;;;;;;4.80;4.80;;;;;24.12;61.05;101879.44;5057720;28;45284;-51
2023/09/04 01:01:06;;;;;;;;;5.40;4.80;;;;;24.08;61.41;101870.88;5057267;28;46239;-50
2023/09/04 01:03:32;;;;;;;;;5.00;5.00;;;;;24.05;60.95;101871.28;5057248;28;45502;-52
2023/09/04 01:05:57;;;;;;;;;5.00;5.00;;;;;24.07;61.65;101881.97;5057625;28;45753;-49
2023/09/04 01:08:24;;;;;;;;;5.50;5.50;;;;;23.99;60.93;101874.00;5057346;28;45447;-46
2023/09/04 01:11:15;;;;;;;;;5.60;5.00;;;;;24.04;61.04;101879.66;5057309;28;46260;-49
2023/09/04 01:13:43;;;;;;;;;6.00;4.80;;;;;24.05;60.13;101887.59;5057243;28;45434;-48
2023/09/04 01:16:08;;;;;;;;;8.00;5.00;;;;;24.01;61.20;101880.88;5057064;28;45371;-51
2023/09/04 01:18:34;;;;;;;;;6.50;5.75;;;;;23.99;61.15;101879.44;5057279;28;45478;-51
2023/09/04 01:21:04;;;;;;;;;7.60;6.00;;;;;23.94;61.30;101873.81;5056826;28;45358;-48
2023/09/04 01:23:30;;;;;;;;;4.80;4.60;;;;;23.94;61.09;101880.06;5056507;28;45365;-46
2023/09/04 01:26:26;;;;;;;;;4.20;4.20;;;;;23.91;61.26;101877.75;5057341;28;45377;-49
2023/09/04 01:29:16;;;;;;;;;5.00;5.00;;;;;23.88;61.05;101872.72;5056175;28;45361;-50
2023/09/04 01:31:55;;;;;;;;;6.40;4.80;;;;;23.85;61.07;101864.97;5056676;28;47520;-52
2023/09/04 01:34:27;;;;;;;;;5.00;5.00;;;;;23.81;61.83;101856.44;5056875;28;45407;-49
2023/09/04 01:36:53;;;;;;;;;5.60;5.60;;;;;23.75;61.72;101864.56;5056598;28;45870;-52
2023/09/04 01:39:20;;;;;;;;;7.00;4.40;;;;;23.77;61.69;101874.19;5056830;28;45652;-50
2023/09/04 01:41:46;;;;;;;;;5.20;5.20;;;;;23.73;62.00;101859.34;5056624;28;45367;-50
2023/09/04 01:44:11;;;;;;;;;8.00;5.00;;;;;23.72;62.02;101860.38;5056295;28;51147;-48
2023/09/04 01:46:37;;;;;;;;;5.25;5.25;;;;;23.69;62.01;101854.53;5056747;28;45409;-51
2023/09/04 01:49:02;;;;;;;;;4.50;4.50;;;;;23.62;61.94;101847.16;5056774;28;45403;-51
2023/09/04 01:51:28;;;;;;;;;6.00;5.00;;;;;23.71;61.68;101860.59;5056532;28;46250;-47
2023/09/04 01:53:53;;;;;;;;;4.75;4.75;;;;;23.69;61.61;101854.53;5054423;28;45478;-47
2023/09/04 01:56:18;;;;;;;;;4.50;4.50;;;;;23.65;62.08;101854.94;5056600;28;45302;-47
2023/09/04 01:58:43;;;;;;;;;6.75;6.75;;;;;23.65;62.19;101854.09;5056755;28;45408;-47
2023/09/04 02:01:09;;;;;;;;;5.50;5.25;;;;;23.62;62.11;101844.44;5056312;28;46150;-50
2023/09/04 02:03:34;;;;;;;;;5.00;5.00;;;;;23.59;62.04;101839.41;5056072;28;45356;-49
2023/09/04 02:06:00;;;;;;;;;6.00;6.00;;;;;23.60;62.19;101845.72;5021708;28;45423;-50
2023/09/04 02:08:25;;;;;;;;;7.00;7.00;;;;;23.56;62.12;101834.41;5056397;28;45435;-49
2023/09/04 02:10:50;;;;;;;;;6.00;5.75;;;;;23.48;62.35;101820.19;5056211;28;46074;-48
2023/09/04 02:13:16;;;;;;;;;6.25;5.00;;;;;;;;5056253;28;45431;-48
2023/09/04 02:15:41;;;;;;;;;7.75;5.25;;;;;23.47;61.59;101818.50;5056092;28;45340;-49
2023/09/04 02:18:06;;;;;;;;;6.00;6.00;;;;;23.45;62.38;101812.47;5056420;28;45309;-50
2023/09/04 02:20:32;;;;;;;;;7.50;5.75;;;;;23.42;62.24;101806.38;5055951;28;46257;-50
2023/09/04 02:22:58;;;;;;;;;9.00;6.00;;;;;23.40;62.44;101810.38;5056230;28;45418;-50
2023/09/04 02:25:24;;;;;;;;;5.40;5.40;;;;;23.37;62.21;101808.88;5056111;28;45560;-47
2023/09/04 02:27:50;;;;;;;;;5.20;5.20;;;;;23.35;62.54;101807.44;5056038;28;45485;-48
2023/09/04 02:30:16;;;;;;;;;5.00;5.00;;;;;23.31;62.37;101801.56;5055939;28;46212;-47
2023/09/04 02:32:41;;;;;;;;;4.75;4.75;;;;;23.20;62.76;101791.31;5055651;28;45418;-50
2023/09/04 02:35:07;;;;;;;;;5.25;5.25;;;;;23.27;62.41;101808.44;5054488;28;45338;-49
2023/09/04 02:37:32;;;;;;;;;37.75;26.00;;;;;23.28;62.31;101803.84;5055760;28;45557;-50
2023/09/04 02:39:57;;;;;;;;;6.00;6.00;;;;;23.21;62.55;101797.56;5055921;28;45475;-47
2023/09/04 02:42:23;;;;;;;;;7.25;7.00;;;;;23.16;62.08;101790.88;5055772;28;45541;-50
2023/09/04 02:44:48;;;;;;;;;5.50;5.50;;;;;23.21;62.70;101792.13;5055693;28;45321;-52
2023/09/04 02:47:14;;;;;;;;;5.50;5.25;;;;;23.18;62.71;101793.41;5056144;28;45385;-48
2023/09/04 02:49:39;;;;;;;;;14.25;12.50;;;;;23.15;62.56;101796.50;5055345;28;45389;-50
2023/09/04 02:52:04;;;;;;;;;8.75;8.00;;;;;23.12;62.88;101786.06;5055653;28;45533;-49
2023/09/04 02:54:30;;;;;;;;;16.00;14.50;;;;;23.05;62.44;101779.75;5055793;28;45471;-49
2023/09/04 02:56:55;;;;;;;;;6.25;5.50;;;;;23.07;62.92;101774.97;5055965;28;45315;-48
2023/09/04 02:59:20;;;;;;;;;5.75;5.00;;;;;23.07;62.42;101780.41;5054568;28;45449;-46
2023/09/04 03:01:49;;;;;;;;;6.50;6.50;;;;;23.00;62.87;101779.53;5055370;28;45398;-46
2023/09/04 03:04:16;;;;;;;;;5.20;5.20;;;;;23.01;62.71;101779.34;5055635;28;45391;-49
2023/09/04 03:06:41;;;;;;;;;7.40;7.00;;;;;23.00;62.87;101787.69;5055757;28;45348;-50
2023/09/04 03:09:07;;;;;;;;;7.00;5.75;;;;;22.99;63.07;101791.44;5055508;28;45426;-51
2023/09/04 03:11:32;;;;;;;;;8.75;7.00;;;;;22.98;62.96;101793.31;5055363;28;45343;-49
2023/09/04 03:13:57;;;;;;;;;7.00;6.00;;;;;22.95;63.20;101792.88;5055732;28;45282;-49
2023/09/04 03:16:23;;;;;;;;;6.25;6.25;;;;;22.95;63.08;101791.00;5055594;28;45427;-51
2023/09/04 03:18:48;;;;;;;;;6.50;6.00;;;;;22.93;63.19;101787.69;5055129;28;47388;-52
2023/09/04 03:21:13;;;;;;;;;10.75;9.25;;;;;22.91;63.00;101787.84;5055142;28;47450;-46
2023/09/04 03:23:39;;;;;;;;;10.00;6.50;;;;;22.95;62.87;101792.88;5055501;28;45420;-51
2023/09/04 03:26:04;;;;;;;;;7.00;5.50;;;;;22.94;63.12;101791.22;5055428;28;45385;-51
2023/09/04 03:28:29;;;;;;;;;7.25;5.75;;;;;22.92;62.82;101788.69;5055173;28;47513;-50
2023/09/04 03:30:55;;;;;;;;;9.25;8.75;;;;;22.86;63.01;101776.75;5055357;28;45365;-49
2023/09/04 03:33:20;;;;;;;;;8.00;7.00;;;;;22.81;63.20;101775.69;5055158;28;45376;-50
2023/09/04 03:35:46;;;;;;;;;6.00;5.25;;;;;22.77;63.61;101771.72;5055470;28;45423;-50
2023/09/04 03:38:11;;;;;;;;;7.50;6.50;;;;;22.77;63.42;101779.84;5055055;28;47583;-51
2023/09/04 03:40:37;;;;;;;;;7.75;7.75;;;;;22.73;63.37;101773.16;5055091;28;45462;-49
2023/09/04 03:43:02;;;;;;;;;8.00;8.00;;;;;22.66;63.64;101770.41;5055249;28;45468;-51
2023/09/04 03:45:33;;;;;;;;;6.00;6.00;;;;;22.62;63.46;101766.41;5055333;28;45375;-49
2023/09/04 03:47:58;;;;;;;;;6.00;6.00;;;;;22.64;63.33;101773.31;5058439;28;45450;-55
2023/09/04 03:50:24;;;;;;;;;6.25;6.25;;;;;22.64;63.43;101770.63;5058292;28;45469;-50
2023/09/04 03:52:49;;;;;;;;;7.75;5.50;;;;;22.62;63.58;101769.13;5058372;28;45383;-47
2023/09/04 03:55:14;;;;;;;;;6.25;6.25;;;;;22.58;63.58;101771.41;5058613;28;45397;-48
2023/09/04 03:57:46;;;;;;;;;7.00;6.00;;;;;22.55;63.51;101782.69;5058126;28;45361;-50
2023/09/04 04:00:16;;;;;;;;;7.40;7.40;;;;;22.54;63.67;101786.41;5058387;28;45371;-49
2023/09/04 04:02:42;;;;;;;;;9.00;7.00;;;;;22.50;63.74;101785.16;5058324;28;45457;-50
2023/09/04 04:05:11;;;;;;;;;8.75;7.00;;;;;22.53;63.79;101784.72;5058219;28;45372;-49
2023/09/04 04:07:37;;;;;;;;;6.80;5.80;;;;;22.54;63.82;101783.69;5057988;28;46116;-50
2023/09/04 04:10:04;;;;;;;;;5.75;5.75;;;;;22.47;63.72;101769.28;5057991;28;45379;-49
2023/09/04 04:12:31;;;;;;;;;6.80;6.40;;;;;22.46;63.47;101759.47;5058457;28;45399;-50
2023/09/04 04:14:57;;;;;;;;;7.20;6.80;;;;;22.43;63.62;101762.59;5058294;28;45472;-50
2023/09/04 04:17:23;;;;;;;;;8.60;7.20;;;;;22.41;63.73;101770.91;5058060;28;46406;-50
2023/09/04 04:19:50;;;;;;;;;6.50;6.25;;;;;22.40;63.45;101776.53;5057586;28;45355;-50
2023/09/04 04:22:16;;;;;;;;;6.60;6.60;;;;;22.40;63.25;101768.41;5057955;28;45370;-49
2023/09/04 04:24:41;;;;;;;;;9.00;8.50;;;;;22.37;63.58;101774.22;5058274;28;45476;-49
2023/09/04 04:27:08;;;;;;;;;12.00;9.00;;;;;22.33;63.94;101765.66;5057536;28;45351;-46
2023/09/04 04:29:34;;;;;;;;;9.40;8.00;;;;;22.36;63.23;101775.25;5057669;28;45436;-50
2023/09/04 04:31:59;;;;;;;;;7.75;7.75;;;;;22.28;63.41;101767.28;5057850;28;45459;-49
2023/09/04 04:34:24;;;;;;;;;9.00;7.75;;;;;22.27;64.16;101776.44;5058251;28;45319;-49
2023/09/04 04:36:55;;;;;;;;;7.50;6.75;;;;;22.30;63.84;101774.19;5057369;28;46012;-49
2023/09/04 04:39:21;;;;;;;;;7.60;7.00;;;;;22.27;63.77;101766.44;5057629;28;45393;-50
2023/09/04 04:41:46;;;;;;;;;7.00;7.00;;;;;22.26;63.96;101770.19;5057782;28;45856;-51
2023/09/04 04:44:11;;;;;;;;;7.25;7.25;;;;;22.22;63.75;101778.94;5057863;28;45284;-50
2023/09/04 04:46:37;;;;;;;;;12.00;8.50;;;;;22.18;64.01;101770.34;5057518;28;45327;-46
2023/09/04 04:49:03;;;;;;;;;9.00;8.25;;;;;22.19;64.06;101769.31;5057479;28;45706;-49
2023/09/04 04:51:28;;;;;;;;;9.00;8.00;;;;;22.17;64.00;101765.97;5056931;28;45878;-48
2023/09/04 04:53:54;;;;;;;;;8.00;6.75;;;;;22.11;64.07;101762.13;5057683;28;45334;-48
2023/09/04 04:56:19;;;;;;;;;7.00;7.00;;;;;22.14;63.88;101764.50;5057261;28;45486;-50
2023/09/04 04:58:44;;;;;;;;;9.25;6.75;;;;;22.11;64.04;101766.72;5056493;28;45375;-51
2023/09/04 05:01:09;;;;;;;;;12.75;9.50;;;;;22.11;64.37;101770.25;5057423;28;45453;-47
2023/09/04 05:03:35;;;;;;;;;7.00;7.00;;;;;22.02;64.60;101755.19;5057576;28;45503;-47
2023/09/04 05:06:00;;;;;;;;;7.50;7.50;;;;;22.05;63.98;101771.06;5056916;28;47709;-52
2023/09/04 05:08:25;;;;;;;;;7.50;7.50;;;;;22.01;64.38;101769.78;5057353;28;45742;-51
2023/09/04 05:11:04;;;;;;;;;9.00;7.75;;;;;22.02;64.20;101773.34;5057406;28;45454;-48
2023/09/04 05:13:30;;;;;;;;;7.25;7.25;;;;;22.01;63.99;101774.38;5057614;28;45155;-47
2023/09/04 05:15:56;;;;;;;;;8.00;7.00;;;;;21.97;64.40;101771.22;5057031;28;46474;-48
2023/09/04 05:18:21;;;;;;;;;10.00;8.75;;;;;21.95;63.79;101765.13;5057322;28;45257;-49
2023/09/04 05:20:48;;;;;;;;;10.00;8.00;;;;;21.93;63.79;101762.63;5057043;28;45212;-48
2023/09/04 05:23:14;;;;;;;;;12.25;9.00;;;;;21.90;64.12;101781.97;5057277;28;45388;-47
2023/09/04 05:25:50;;;;;;;;;10.25;7.00;;;;;21.87;64.01;101787.81;5056858;28;47217;-52
2023/09/04 05:28:16;;;;;;;;;10.00;8.80;;;;;21.87;64.73;101782.41;5056935;28;45459;-49
2023/09/04 05:30:41;;;;;;;;;10.00;8.75;;;;;21.91;63.89;101790.94;5057080;28;45748;-50
2023/09/04 05:33:06;;;;;;;;;10.75;9.50;;;;;21.88;64.47;101791.38;5056935;28;45428;-49
2023/09/04 05:35:32;;;;;;;;;10.75;9.00;;;;;21.85;63.86;101795.28;5056721;28;46165;-51
2023/09/04 05:37:58;;;;;;;;;9.00;9.00;;;;;21.80;64.45;101781.50;5056821;28;45352;-49
2023/09/04 05:40:24;;;;;;;;;11.20;9.40;;;;;21.78;64.25;101775.41;5057004;28;45590;-51
2023/09/04 05:42:50;;;;;;;;;10.25;9.50;;;;;21.85;64.50;101781.75;5057014;28;45213;-50
2023/09/04 05:45:16;;;;;;;;;8.00;8.00;;;;;21.82;63.83;101789.41;5056508;28;46401;-47
2023/09/04 05:47:41;;;;;;;;;10.00;9.20;;;;;21.82;63.95;101784.00;5056812;28;45554;-47
2023/09/04 05:50:07;;;;;;;;;10.00;9.50;;;;;21.78;64.12;101791.66;5056523;28;45339;-50
2023/09/04 05:52:32;;;;;;;;;9.50;9.00;;;;;21.83;63.54;101791.13;5056975;28;45447;-51
2023/09/04 05:54:57;;;;;;;;;10.75;8.75;;;;;21.79;64.56;101790.66;5056486;28;46540;-52
2023/09/04 05:57:23;;;;;;;;;9.25;9.25;;;;;21.80;64.06;101789.63;5056601;28;46178;-50
2023/09/04 05:59:49;;;;;;;;;11.00;9.00;;;;;21.81;63.95;101787.75;5056682;28;45405;-50
2023/09/04 06:02:14;;;;;;;;;12.50;10.00;;;;;21.79;64.02;101789.84;5056971;28;45300;-50
2023/09/04 06:04:40;;;;;;;;;9.25;8.75;;;;;21.78;64.38;101790.84;5056307;28;46241;-50
2023/09/04 06:07:06;;;;;;;;;10.20;9.80;;;;;21.76;64.18;101795.63;5056203;28;45403;-52
2023/09/04 06:09:32;;;;;;;;;10.60;10.60;;;;;21.75;64.17;101802.09;5056360;28;45508;-52
2023/09/04 06:11:58;;;;;;;;;11.00;9.00;;;;;21.67;63.95;101784.94;5056580;28;45630;-52
2023/09/04 06:14:23;;;;;;;;;10.50;9.00;;;;;21.72;63.69;101799.75;5056207;28;45580;-50
2023/09/04 06:16:48;;;;;;;;;12.00;10.25;;;;;21.78;63.97;101797.09;5056075;28;45224;-50
2023/09/04 06:19:14;;;;;;;;;8.50;8.00;;;;;21.81;63.90;101790.47;5056042;28;45663;-49
2023/09/04 06:21:39;;;;;;;;;9.25;9.25;;;;;21.90;63.57;101797.41;5056210;28;45264;-49
2023/09/04 06:24:05;;;;;;;;;9.25;8.00;;;;;21.95;63.70;101799.53;5055927;28;45466;-51
2023/09/04 06:26:30;;;;;;;;;11.00;9.25;;;;;21.98;63.43;101797.25;5055195;28;45231;-51
2023/09/04 06:28:55;;;;;;;;;11.50;10.00;;;;;22.04;63.46;101801.91;5055973;28;45350;-49
2023/09/04 06:31:21;;;;;;;;;15.50;10.75;;;;;22.05;62.95;101792.75;5055702;28;45197;-50
2023/09/04 06:33:47;;;;;;;;;17.50;14.25;;;;;22.15;62.97;101797.84;5055610;28;45306;-49
2023/09/04 06:36:13;;;;;;;;;13.75;11.25;;;;;22.12;62.90;101788.25;5055328;28;45361;-51
2023/09/04 06:38:38;;;;;;;;;7.00;7.00;;;;;22.17;62.58;101812.03;5055911;28;45941;-48
2023/09/04 06:41:04;;;;;;;;;12.75;10.50;;;;;22.20;62.14;101795.38;5056048;28;45344;-48
2023/09/04 06:43:30;;;;;;;;;13.75;10.50;;;;;22.15;62.08;101795.13;5055815;28;46085;-47
2023/09/04 06:45:55;;;;;;;;;11.00;9.00;;;;;22.22;61.77;101789.78;5055725;28;45546;-48
2023/09/04 06:48:21;;;;;;;;;11.75;10.75;;;;;22.27;62.07;101800.84;5054548;28;45681;-47
2023/09/04 06:50:51;;;;;;;;;21.25;16.75;;;;;22.34;62.09;101799.03;5055992;28;45520;-42
2023/09/04 06:53:17;;;;;;;;;13.25;13.00;;;;;22.38;61.43;101808.44;5055493;28;45334;-40
2023/09/04 06:55:43;;;;;;;;;13.50;12.00;;;;;22.40;61.43;101798.22;5055470;28;45412;-43
2023/09/04 06:58:08;;;;;;;;;12.00;12.00;;;;;22.41;61.40;101797.19;5055877;28;45562;-42
2023/09/04 07:00:34;;;;;;;;;16.50;14.50;;;;;22.45;61.38;101801.16;5055732;28;45429;-40
2023/09/04 07:03:00;;;;;;;;;13.00;9.20;;;;;22.52;60.90;101796.63;5055490;28;46177;-43
2023/09/04 07:05:25;;;;;;;;;12.25;10.00;;;;;22.68;60.69;101798.19;5055083;28;45463;-40
2023/09/04 07:07:50;;;;;;;;;11.75;11.00;;;;;22.90;60.37;101801.63;5055419;28;45572;-42
2023/09/04 07:10:16;;;;;;;;;11.50;10.00;;;;;23.27;59.50;101799.47;5055738;28;45315;-40
2023/09/04 07:12:41;;;;;;;;;10.00;9.75;;;;;23.79;58.25;101789.75;5055267;28;45399;-41
2023/09/04 07:15:07;;;;;;;;;11.75;10.00;;;;;24.34;56.61;101787.59;5055719;28;45308;-43
2023/09/04 07:17:32;;;;;;;;;12.75;10.25;;;;;25.00;55.47;101790.13;5055496;28;45411;-43
2023/09/04 07:19:58;;;;;;;;;7.75;5.50;;;;;25.70;53.38;101778.38;5055503;28;45533;-42
2023/09/04 07:22:24;;;;;;;;;15.00;15.00;;;;;26.47;51.02;101782.53;5057881;28;45365;-40
2023/09/04 07:24:50;;;;;;;;;10.00;7.00;;;;;27.28;51.48;101777.72;5058762;28;45519;-42
2023/09/04 07:27:16;;;;;;;;;11.20;11.00;;;;;28.24;47.42;101778.47;5059045;28;45241;-40
2023/09/04 07:29:41;;;;;;;;;12.50;10.50;;;;;29.29;44.66;101780.94;5058917;28;45308;-39
2023/09/04 07:32:07;;;;;;;;;6.50;6.50;;;;;30.22;45.97;101777.81;5058523;28;45866;-40
2023/09/04 07:34:32;;;;;;;;;9.00;8.00;;;;;30.84;42.00;101769.28;5058824;28;45366;-41
2023/09/04 07:36:57;;;;;;;;;8.25;8.00;;;;;31.43;41.13;101776.78;5058864;28;45495;-42
2023/09/04 07:39:23;;;;;;;;;4.50;4.50;;;;;31.65;40.27;101777.53;5059086;28;45360;-39
2023/09/04 07:41:48;;;;;;;;;11.50;10.75;;;;;31.82;40.22;101774.63;5058322;28;45346;-39
2023/09/04 07:44:13;;;;;;;;;9.00;9.00;;;;;32.14;40.28;101779.28;5058338;28;45502;-40
2023/09/04 07:46:40;;;;;;;;;9.00;7.75;;;;;32.58;38.09;101770.72;5058796;28;45470;-41
2023/09/04 07:49:05;;;;;;;;;7.40;7.00;;;;;32.85;37.38;101765.84;5058057;28;45336;-42
2023/09/04 07:51:31;;;;;;;;;9.00;8.75;;;;;33.41;36.78;101765.94;5056986;28;48611;-42
2023/09/04 07:53:56;;;;;;;;;8.00;8.00;;;;;33.71;36.82;101767.91;5058400;28;45332;-41
2023/09/04 07:56:23;;;;;;;;;8.00;8.00;;;;;34.09;35.89;101771.19;5058357;28;45744;-41
2023/09/04 07:58:49;;;;;;;;;8.20;8.20;;;;;34.41;36.03;101773.56;5058619;28;45446;-41
2023/09/04 08:01:14;;;;;;;;;8.60;7.00;;;;;34.78;35.73;101761.28;5058567;28;46459;-45
2023/09/04 08:03:41;;;;;;;;;8.00;7.50;;;;;35.33;33.49;101750.13;5058459;28;45399;-42
2023/09/04 08:06:07;;;;;;;;;6.80;5.40;;;;;35.72;33.47;101759.22;5058233;28;45517;-42
2023/09/04 08:08:32;;;;;;;;;11.80;8.00;;;;;36.15;32.07;101753.78;5058422;28;45473;-41
2023/09/04 08:10:58;;;;;;;;;7.25;6.50;;;;;36.71;31.13;101750.34;5058554;28;45406;-41
2023/09/04 08:13:23;;;;;;;;;6.50;4.50;;;;;36.97;30.17;101744.47;5058264;28;45393;-38
2023/09/04 08:15:48;;;;;;;;;9.50;6.25;;;;;37.36;30.65;101754.38;5058400;28;45433;-42
2023/09/04 08:18:14;;;;;;;;;8.50;6.00;;;;;37.51;30.85;101754.16;5058560;28;45478;-41
2023/09/04 08:20:40;;;;;;;;;8.25;6.50;;;;;37.75;29.90;101758.69;5057882;28;47164;-41
2023/09/04 08:23:07;;;;;;;;;10.50;7.50;;;;;37.74;29.60;101760.66;5058410;28;45434;-43
2023/09/04 08:25:33;;;;;;;;;6.40;6.40;;;;;37.36;30.09;101759.91;5058050;28;45400;-41
2023/09/04 08:27:59;;;;;;;;;10.00;6.25;;;;;36.81;30.43;101749.38;5058636;28;45387;-43
2023/09/04 08:30:24;;;;;;;;;10.00;6.75;;;;;36.45;31.66;101747.09;5058005;28;46823;-43
2023/09/04 08:32:50;;;;;;;;;7.75;6.25;;;;;36.15;31.34;101750.19;5056634;28;45233;-45
2023/09/04 08:35:15;;;;;;;;;7.75;6.00;;;;;36.06;32.43;101751.97;5058121;28;45309;-42
2023/09/04 08:37:41;;;;;;;;;6.00;6.00;;;;;35.77;32.30;101740.91;5057900;28;45941;-43
2023/09/04 08:40:07;;;;;;;;;6.25;6.25;;;;;35.56;33.84;101737.50;5057831;28;46148;-42
2023/09/04 08:42:33;;;;;;;;;8.00;6.20;;;;;35.51;33.15;101743.91;5058024;28;45419;-41
2023/09/04 08:44:59;;;;;;;;;9.20;7.20;;;;;35.59;34.55;101748.00;5058155;28;45313;-42
2023/09/04 08:47:25;;;;;;;;;8.80;7.40;;;;;35.82;32.84;101738.91;5058041;28;45530;-41
2023/09/04 08:49:54;;;;;;;;;6.20;5.00;;;;;36.13;32.27;101735.84;5057499;28;46315;-42
2023/09/04 08:52:20;;;;;;;;;7.00;7.00;;;;;36.35;32.87;101736.09;5057708;28;45375;-41
2023/09/04 08:54:47;;;;;;;;;7.50;7.00;;;;;36.29;32.44;101723.44;5057957;28;45396;-41
2023/09/04 08:57:13;;;;;;;;;7.40;6.60;;;;;36.52;31.19;101719.00;5058015;28;45348;-41
2023/09/04 08:59:38;;;;;;;;;8.00;7.00;;;;;36.87;31.34;101712.13;5057624;28;45421;-40
2023/09/04 09:02:05;;;;;;;;;6.25;4.50;;;;;37.61;29.75;101722.59;5057685;28;45726;-41
2023/09/04 09:04:32;;;;;;;;;8.00;6.40;;;;;39.28;29.52;101722.09;5057718;28;45412;-39
2023/09/04 09:06:58;;;;;;;;;9.00;8.20;;;;;41.25;27.63;101736.09;5057719;28;45597;-40
2023/09/04 09:09:25;;;;;;;;;6.00;6.00;;;;;42.97;24.28;101731.97;5057391;28;45363;-40
2023/09/04 09:11:53;;;;;;;;;7.00;7.00;;;;;44.44;24.02;101721.00;5056227;28;46010;-39
2023/09/04 09:14:20;;;;;;;;;8.00;5.20;;;;;45.46;21.80;101732.78;5057265;28;45378;-40
2023/09/04 09:16:45;;;;;;;;;6.80;5.00;;;;;46.49;20.14;101734.53;5057422;28;45449;-41
2023/09/04 09:19:13;;;;;;;;;9.25;7.00;;;;;47.28;19.21;101738.94;5057351;28;46191;-41
2023/09/04 09:21:39;;;;;;;;;8.60;6.60;;;;;47.92;19.11;101729.63;5056948;28;45393;-38
2023/09/04 09:24:05;;;;;;;;;5.20;5.20;;;;;48.95;17.90;101723.81;5057117;28;45403;-41
2023/09/04 09:26:30;;;;;;;;;6.00;6.00;;;;;49.55;18.47;101712.31;5057529;28;45268;-41
2023/09/04 09:28:56;;;;;;;;;7.00;6.75;;;;;49.72;16.57;101707.19;5056804;28;45396;-41
2023/09/04 09:31:21;;;;;;;;;7.25;6.00;;;;;50.14;16.93;101713.13;5057132;28;45300;-41
2023/09/04 09:33:48;;;;;;;;;4.75;4.75;;;;;50.63;16.60;101705.31;5057121;28;45275;-42
2023/09/04 09:36:14;;;;;;;;;5.40;4.60;;;;;51.28;15.64;101709.13;5056930;28;45380;-42
2023/09/04 09:38:44;;;;;;;;;7.00;5.75;;;;;51.68;16.71;101709.97;5057163;28;46297;-42
2023/09/04 09:41:12;;;;;;;;;7.00;6.20;;;;;51.84;16.02;101701.84;5056820;28;45828;-41
2023/09/04 09:43:37;;;;;;;;;6.20;6.20;;;;;52.23;15.52;101706.63;5055319;28;45371;-41
2023/09/04 09:46:03;;;;;;;;;6.00;6.00;;;;;52.79;14.07;101694.19;5057224;28;45320;-41
2023/09/04 09:48:30;;;;;;;;;4.25;4.25;;;;;53.36;14.24;101693.00;5056892;28;45426;-42
2023/09/04 09:50:57;;;;;;;;;4.60;4.60;;;;;53.73;13.84;101686.56;5056669;28;45384;-41
2023/09/04 09:53:22;;;;;;;;;6.00;3.00;;;;;54.26;14.48;101681.53;5056942;28;45334;-43
2023/09/04 09:55:48;;;;;;;;;4.25;4.25;;;;;54.50;13.92;101680.38;5055704;28;45335;-43
2023/09/04 09:58:16;;;;;;;;;5.25;5.25;;;;;55.01;13.56;101681.28;5056617;28;46717;-43
2023/09/04 10:00:42;;;;;;;;;5.20;5.20;;;;;54.93;13.20;101674.09;5056761;28;45347;-45
2023/09/04 10:03:08;;;;;;;;;4.00;4.00;;;;;55.17;12.38;101677.78;5056675;28;45232;-42
2023/09/04 10:05:35;;;;;;;;;5.25;5.25;;;;;55.53;12.86;101672.25;5056826;28;45328;-43
2023/09/04 10:08:03;;;;;;;;;3.20;3.20;;;;;55.97;12.79;101667.34;5056554;28;46886;-41
2023/09/04 10:10:36;;;;;;;;;6.25;4.25;;;;;56.16;12.00;101653.50;5056452;28;45374;-44
2023/09/04 10:13:12;;;;;;;;;5.75;5.75;;;;;56.63;12.56;101656.94;5056934;28;45409;-41
2023/09/04 10:15:41;;;;;;;;;5.75;5.25;;;;;56.92;11.85;101653.41;5056740;28;45399;-41
2023/09/04 10:18:11;;;;;;;;;7.50;6.75;;;;;57.05;11.67;101656.38;5056521;28;45345;-40
2023/09/04 10:20:40;;;;;;;;;6.00;6.00;;;;;57.22;13.47;101649.38;5056365;28;45390;-41
2023/09/04 10:23:08;;;;;;;;;5.00;5.00;;;;;57.22;11.23;101641.59;5056409;28;45306;-43
2023/09/04 10:26:01;;;;;;;;;5.75;5.75;;;;;57.19;12.31;101633.94;5056494;28;45310;-41
2023/09/04 10:28:30;;;;;;;;;7.50;4.50;;;;;57.40;11.41;101628.88;5055997;28;45272;-40
2023/09/04 10:30:57;;;;;;;;;4.50;4.50;;;;;57.35;11.79;101633.09;5054749;28;45528;-42
2023/09/04 10:33:23;;;;;;;;;8.20;6.20;;;;;57.11;13.41;101628.84;5056330;28;45433;-42
2023/09/04 10:35:49;;;;;;;;;6.25;5.00;;;;;56.94;11.62;101616.59;5056398;28;45376;-42
2023/09/04 10:38:14;;;;;;;;;5.67;4.33;;;;;56.70;11.47;101633.09;5055885;28;47233;-42
2023/09/04 10:40:41;;;;;;;;;5.33;5.33;;;;;56.37;12.73;101621.59;5055924;28;45336;-42
2023/09/04 10:43:09;;;;;;;;;4.20;4.00;;;;;56.34;11.58;101610.25;5056446;28;45435;-41
2023/09/04 10:45:35;;;;;;;;;5.00;5.00;;;;;56.61;12.59;101607.19;5056057;28;45456;-41
2023/09/04 10:48:01;;;;;;;;;6.25;5.50;;;;;56.83;11.98;101591.13;5055959;28;45544;-42
2023/09/04 10:50:33;;;;;;;;;5.20;5.20;;;;;57.24;11.04;101598.25;5054630;28;45421;-40
2023/09/04 10:53:01;;;;;;;;;6.20;5.60;;;;;57.43;11.54;101594.44;5056052;28;45358;-41
2023/09/04 10:55:27;;;;;;;;;6.60;6.60;;;;;57.71;11.60;101595.72;5055963;28;45478;-40
2023/09/04 10:58:00;;;;;;;;;5.00;5.00;;;;;57.99;11.00;101587.53;5059197;28;45366;-41
2023/09/04 11:00:32;;;;;;;;;6.20;6.20;;;;;57.85;12.02;101583.00;5059168;28;45461;-41
2023/09/04 11:03:13;;;;;;;;;8.00;4.50;;;;;57.56;11.34;101576.50;5059774;28;45256;-41
2023/09/04 11:06:07;;;;;;;;;3.75;3.75;;;;;57.07;12.02;101577.47;5059584;28;45402;-40
2023/09/04 11:08:34;;;;;;;;;5.00;3.75;;;;;57.11;11.97;101563.88;5059259;28;46397;-42
2023/09/04 11:11:05;;;;;;;;;5.20;5.20;;;;;57.10;12.05;101564.31;5059403;28;45257;-41
2023/09/04 11:13:36;;;;;;;;;4.60;4.60;;;;;57.17;11.27;101555.53;5059572;28;45462;-40
2023/09/04 11:16:07;;;;;;;;;5.20;4.00;;;;;57.16;12.70;101557.59;5059774;28;45379;-42
2023/09/04 11:18:35;;;;;;;;;5.00;4.25;;;;;57.28;11.44;101556.03;5059276;28;46544;-42
2023/09/04 11:21:01;;;;;;;;;7.60;5.60;;;;;57.55;12.19;101552.03;5059377;28;45250;-40